sensor_id;sensor_type;location;lat;lon;timestamp;P1;durP1;ratioP1;P2;durP2;ratioP2
26654;SDS011;14278;50.784;4.630;2022-08-20T00:00:14;1.40;;;1.30;;
26654;SDS011;14278;50.784;4.630;2022-08-20T00:02:43;2.10;;;1.90;;
26654;SDS011;14278;50.784;4.630;2022-08-20T00:05:12;3.80;;;1.63;;
26654;SDS011;14278;50.784;4.630;2022-08-20T00:07:39;1.65;;;1.55;;
26654;SDS011;14278;50.784;4.630;2022-08-20T00:10:06;1.43;;;1.33;;
26654;SDS011;14278;50.784;4.630;2022-08-20T00:12:34;1.77;;;1.67;;
26654;SDS011;14278;50.784;4.630;2022-08-20T00:15:03;1.60;;;1.40;;
26654;SDS011;14278;50.784;4.630;2022-08-20T00:17:30;4.20;;;1.70;;
26654;SDS011;14278;50.784;4.630;2022-08-20T00:20:06;2.20;;;1.90;;
26654;SDS011;14278;50.784;4.630;2022-08-20T00:22:37;2.57;;;1.90;;
26654;SDS011;14278;50.784;4.630;2022-08-20T00:25:04;2.60;;;2.40;;
26654;SDS011;14278;50.784;4.630;2022-08-20T00:27:32;3.10;;;2.30;;
26654;SDS011;14278;50.784;4.630;2022-08-20T00:29:57;1.50;;;1.40;;
26654;SDS011;14278;50.784;4.630;2022-08-20T00:32:23;3.97;;;1.83;;
26654;SDS011;14278;50.784;4.630;2022-08-20T00:34:49;1.00;;;1.00;;
26654;SDS011;14278;50.784;4.630;2022-08-20T00:37:15;2.43;;;1.87;;
26654;SDS011;14278;50.784;4.630;2022-08-20T00:39:42;1.70;;;1.60;;
26654;SDS011;14278;50.784;4.630;2022-08-20T00:42:08;1.20;;;1.10;;
26654;SDS011;14278;50.784;4.630;2022-08-20T00:44:34;7.50;;;1.87;;
26654;SDS011;14278;50.784;4.630;2022-08-20T00:47:00;1.42;;;1.33;;
26654;SDS011;14278;50.784;4.630;2022-08-20T00:49:27;1.55;;;1.45;;
26654;SDS011;14278;50.784;4.630;2022-08-20T00:51:59;1.47;;;1.37;;
26654;SDS011;14278;50.784;4.630;2022-08-20T00:54:33;2.08;;;1.80;;
26654;SDS011;14278;50.784;4.630;2022-08-20T00:57:16;2.70;;;1.73;;
26654;SDS011;14278;50.784;4.630;2022-08-20T00:59:46;2.37;;;1.83;;
26654;SDS011;14278;50.784;4.630;2022-08-20T01:02:15;10.50;;;1.77;;
26654;SDS011;14278;50.784;4.630;2022-08-20T01:04:43;2.40;;;1.60;;
26654;SDS011;14278;50.784;4.630;2022-08-20T01:07:16;1.73;;;1.60;;
26654;SDS011;14278;50.784;4.630;2022-08-20T01:09:44;2.70;;;2.03;;
26654;SDS011;14278;50.784;4.630;2022-08-20T01:12:11;1.53;;;1.43;;
26654;SDS011;14278;50.784;4.630;2022-08-20T01:14:42;1.93;;;1.27;;
26654;SDS011;14278;50.784;4.630;2022-08-20T01:17:13;1.80;;;1.43;;
26654;SDS011;14278;50.784;4.630;2022-08-20T01:19:52;1.93;;;1.33;;
26654;SDS011;14278;50.784;4.630;2022-08-20T01:22:31;1.67;;;1.33;;
26654;SDS011;14278;50.784;4.630;2022-08-20T01:25:36;2.03;;;1.47;;
26654;SDS011;14278;50.784;4.630;2022-08-20T01:28:12;1.17;;;1.03;;
26654;SDS011;14278;50.784;4.630;2022-08-20T01:30:40;1.50;;;1.40;;
26654;SDS011;14278;50.784;4.630;2022-08-20T01:33:06;1.80;;;1.40;;
26654;SDS011;14278;50.784;4.630;2022-08-20T01:35:36;1.60;;;1.50;;
26654;SDS011;14278;50.784;4.630;2022-08-20T01:38:04;1.63;;;1.53;;
26654;SDS011;14278;50.784;4.630;2022-08-20T01:40:51;1.63;;;1.50;;
26654;SDS011;14278;50.784;4.630;2022-08-20T01:43:23;2.83;;;1.77;;
26654;SDS011;14278;50.784;4.630;2022-08-20T01:45:50;2.03;;;1.60;;
26654;SDS011;14278;50.784;4.630;2022-08-20T01:48:17;1.50;;;1.40;;
26654;SDS011;14278;50.784;4.630;2022-08-20T01:50:43;1.10;;;1.00;;
26654;SDS011;14278;50.784;4.630;2022-08-20T01:53:19;1.30;;;1.05;;
26654;SDS011;14278;50.784;4.630;2022-08-20T01:55:53;2.20;;;1.60;;
26654;SDS011;14278;50.784;4.630;2022-08-20T01:58:18;2.07;;;1.30;;
26654;SDS011;14278;50.784;4.630;2022-08-20T02:00:44;2.07;;;1.20;;
26654;SDS011;14278;50.784;4.630;2022-08-20T02:03:10;1.63;;;1.43;;
26654;SDS011;14278;50.784;4.630;2022-08-20T02:05:37;1.73;;;1.10;;
26654;SDS011;14278;50.784;4.630;2022-08-20T02:08:03;1.53;;;1.43;;
26654;SDS011;14278;50.784;4.630;2022-08-20T02:10:30;1.53;;;1.43;;
26654;SDS011;14278;50.784;4.630;2022-08-20T02:12:57;1.53;;;1.43;;
26654;SDS011;14278;50.784;4.630;2022-08-20T02:15:24;0.93;;;0.93;;
26654;SDS011;14278;50.784;4.630;2022-08-20T02:17:51;2.30;;;1.60;;
26654;SDS011;14278;50.784;4.630;2022-08-20T02:20:17;1.10;;;1.10;;
26654;SDS011;14278;50.784;4.630;2022-08-20T02:22:48;8.87;;;1.53;;
26654;SDS011;14278;50.784;4.630;2022-08-20T02:25:19;3.43;;;1.17;;
26654;SDS011;14278;50.784;4.630;2022-08-20T02:27:47;2.13;;;1.57;;
26654;SDS011;14278;50.784;4.630;2022-08-20T02:30:17;1.73;;;1.20;;
26654;SDS011;14278;50.784;4.630;2022-08-20T02:32:46;1.87;;;1.47;;
26654;SDS011;14278;50.784;4.630;2022-08-20T02:35:12;2.40;;;1.57;;
26654;SDS011;14278;50.784;4.630;2022-08-20T02:37:42;2.07;;;1.60;;
26654;SDS011;14278;50.784;4.630;2022-08-20T02:40:11;0.97;;;0.87;;
26654;SDS011;14278;50.784;4.630;2022-08-20T02:42:40;4.83;;;1.80;;
26654;SDS011;14278;50.784;4.630;2022-08-20T02:45:09;1.20;;;1.10;;
26654;SDS011;14278;50.784;4.630;2022-08-20T02:47:36;1.70;;;1.47;;
26654;SDS011;14278;50.784;4.630;2022-08-20T02:50:03;2.57;;;1.30;;
26654;SDS011;14278;50.784;4.630;2022-08-20T02:52:30;4.10;;;1.97;;
26654;SDS011;14278;50.784;4.630;2022-08-20T02:54:56;2.30;;;1.50;;
26654;SDS011;14278;50.784;4.630;2022-08-20T02:57:22;4.53;;;1.40;;
26654;SDS011;14278;50.784;4.630;2022-08-20T02:59:49;2.00;;;1.50;;
26654;SDS011;14278;50.784;4.630;2022-08-20T03:02:18;1.40;;;1.20;;
26654;SDS011;14278;50.784;4.630;2022-08-20T03:04:44;10.27;;;1.93;;
26654;SDS011;14278;50.784;4.630;2022-08-20T03:07:10;1.63;;;1.50;;
26654;SDS011;14278;50.784;4.630;2022-08-20T03:09:36;2.40;;;1.60;;
26654;SDS011;14278;50.784;4.630;2022-08-20T03:12:03;1.57;;;1.47;;
26654;SDS011;14278;50.784;4.630;2022-08-20T03:14:30;7.03;;;1.90;;
26654;SDS011;14278;50.784;4.630;2022-08-20T03:16:56;2.93;;;1.53;;
26654;SDS011;14278;50.784;4.630;2022-08-20T03:19:24;2.37;;;1.77;;
26654;SDS011;14278;50.784;4.630;2022-08-20T03:21:50;3.83;;;2.23;;
26654;SDS011;14278;50.784;4.630;2022-08-20T03:24:16;3.20;;;2.63;;
26654;SDS011;14278;50.784;4.630;2022-08-20T03:26:41;5.40;;;2.17;;
26654;SDS011;14278;50.784;4.630;2022-08-20T03:29:08;4.87;;;2.27;;
26654;SDS011;14278;50.784;4.630;2022-08-20T03:31:35;2.60;;;1.87;;
26654;SDS011;14278;50.784;4.630;2022-08-20T03:34:01;2.33;;;2.13;;
26654;SDS011;14278;50.784;4.630;2022-08-20T03:36:27;3.33;;;1.97;;
26654;SDS011;14278;50.784;4.630;2022-08-20T03:38:54;2.80;;;1.83;;
26654;SDS011;14278;50.784;4.630;2022-08-20T03:41:24;2.37;;;2.03;;
26654;SDS011;14278;50.784;4.630;2022-08-20T03:43:52;2.40;;;2.20;;
26654;SDS011;14278;50.784;4.630;2022-08-20T03:46:18;2.20;;;1.97;;
26654;SDS011;14278;50.784;4.630;2022-08-20T03:48:44;3.90;;;2.17;;
26654;SDS011;14278;50.784;4.630;2022-08-20T03:51:10;4.40;;;2.43;;
26654;SDS011;14278;50.784;4.630;2022-08-20T03:53:36;5.33;;;2.47;;
26654;SDS011;14278;50.784;4.630;2022-08-20T03:56:03;3.77;;;2.70;;
26654;SDS011;14278;50.784;4.630;2022-08-20T03:58:30;1.93;;;1.73;;
26654;SDS011;14278;50.784;4.630;2022-08-20T04:00:57;2.40;;;2.20;;
26654;SDS011;14278;50.784;4.630;2022-08-20T04:03:23;3.93;;;2.47;;
26654;SDS011;14278;50.784;4.630;2022-08-20T04:05:49;2.97;;;2.40;;
26654;SDS011;14278;50.784;4.630;2022-08-20T04:08:19;3.40;;;2.37;;
26654;SDS011;14278;50.784;4.630;2022-08-20T04:10:51;3.17;;;2.10;;
26654;SDS011;14278;50.784;4.630;2022-08-20T04:13:18;5.73;;;3.10;;
26654;SDS011;14278;50.784;4.630;2022-08-20T04:15:45;3.50;;;2.93;;
26654;SDS011;14278;50.784;4.630;2022-08-20T04:18:12;2.90;;;2.37;;
26654;SDS011;14278;50.784;4.630;2022-08-20T04:20:41;5.83;;;2.67;;
26654;SDS011;14278;50.784;4.630;2022-08-20T04:23:08;3.20;;;2.30;;
26654;SDS011;14278;50.784;4.630;2022-08-20T04:25:34;3.50;;;3.13;;
26654;SDS011;14278;50.784;4.630;2022-08-20T04:28:05;4.27;;;2.87;;
26654;SDS011;14278;50.784;4.630;2022-08-20T04:30:32;2.47;;;2.27;;
26654;SDS011;14278;50.784;4.630;2022-08-20T04:32:59;2.70;;;2.47;;
26654;SDS011;14278;50.784;4.630;2022-08-20T04:35:25;2.53;;;2.17;;
26654;SDS011;14278;50.784;4.630;2022-08-20T04:37:59;3.60;;;2.83;;
26654;SDS011;14278;50.784;4.630;2022-08-20T04:40:27;3.13;;;2.20;;
26654;SDS011;14278;50.784;4.630;2022-08-20T04:43:12;4.70;;;2.63;;
26654;SDS011;14278;50.784;4.630;2022-08-20T04:45:39;6.53;;;3.07;;
26654;SDS011;14278;50.784;4.630;2022-08-20T04:48:05;3.13;;;2.57;;
26654;SDS011;14278;50.784;4.630;2022-08-20T04:50:35;5.50;;;3.20;;
26654;SDS011;14278;50.784;4.630;2022-08-20T04:53:03;6.90;;;2.97;;
26654;SDS011;14278;50.784;4.630;2022-08-20T04:55:32;4.00;;;2.70;;
26654;SDS011;14278;50.784;4.630;2022-08-20T04:58:03;4.23;;;3.67;;
26654;SDS011;14278;50.784;4.630;2022-08-20T05:00:30;2.90;;;2.37;;
26654;SDS011;14278;50.784;4.630;2022-08-20T05:02:57;3.17;;;2.67;;
26654;SDS011;14278;50.784;4.630;2022-08-20T05:05:22;3.20;;;2.80;;
26654;SDS011;14278;50.784;4.630;2022-08-20T05:07:49;3.70;;;2.53;;
26654;SDS011;14278;50.784;4.630;2022-08-20T05:10:16;3.17;;;2.77;;
26654;SDS011;14278;50.784;4.630;2022-08-20T05:12:42;8.00;;;2.67;;
26654;SDS011;14278;50.784;4.630;2022-08-20T05:15:09;2.67;;;2.00;;
26654;SDS011;14278;50.784;4.630;2022-08-20T05:17:37;2.80;;;2.57;;
26654;SDS011;14278;50.784;4.630;2022-08-20T05:20:04;3.67;;;2.33;;
26654;SDS011;14278;50.784;4.630;2022-08-20T05:22:33;2.70;;;2.20;;
26654;SDS011;14278;50.784;4.630;2022-08-20T05:24:59;3.57;;;2.03;;
26654;SDS011;14278;50.784;4.630;2022-08-20T05:27:25;4.23;;;2.70;;
26654;SDS011;14278;50.784;4.630;2022-08-20T05:30:02;2.83;;;2.33;;
26654;SDS011;14278;50.784;4.630;2022-08-20T05:32:31;8.40;;;2.00;;
26654;SDS011;14278;50.784;4.630;2022-08-20T05:34:59;2.47;;;2.20;;
26654;SDS011;14278;50.784;4.630;2022-08-20T05:37:33;4.67;;;2.87;;
26654;SDS011;14278;50.784;4.630;2022-08-20T05:39:59;3.07;;;2.17;;
26654;SDS011;14278;50.784;4.630;2022-08-20T05:42:25;3.70;;;2.87;;
26654;SDS011;14278;50.784;4.630;2022-08-20T05:44:53;4.20;;;2.13;;
26654;SDS011;14278;50.784;4.630;2022-08-20T05:47:20;3.47;;;2.73;;
26654;SDS011;14278;50.784;4.630;2022-08-20T05:49:51;4.47;;;2.33;;
26654;SDS011;14278;50.784;4.630;2022-08-20T05:52:17;2.70;;;2.50;;
26654;SDS011;14278;50.784;4.630;2022-08-20T05:54:43;2.73;;;1.93;;
26654;SDS011;14278;50.784;4.630;2022-08-20T05:57:09;6.23;;;2.57;;
26654;SDS011;14278;50.784;4.630;2022-08-20T05:59:36;4.00;;;2.50;;
26654;SDS011;14278;50.784;4.630;2022-08-20T06:02:03;4.00;;;2.47;;
26654;SDS011;14278;50.784;4.630;2022-08-20T06:04:49;2.13;;;2.00;;
26654;SDS011;14278;50.784;4.630;2022-08-20T06:07:15;3.00;;;2.37;;
26654;SDS011;14278;50.784;4.630;2022-08-20T06:09:41;6.57;;;2.67;;
26654;SDS011;14278;50.784;4.630;2022-08-20T06:12:07;3.23;;;2.03;;
26654;SDS011;14278;50.784;4.630;2022-08-20T06:14:34;10.97;;;2.87;;
26654;SDS011;14278;50.784;4.630;2022-08-20T06:17:10;19.30;;;15.20;;
26654;SDS011;14278;50.784;4.630;2022-08-20T06:19:39;8.93;;;5.23;;
26654;SDS011;14278;50.784;4.630;2022-08-20T06:22:06;5.17;;;3.20;;
26654;SDS011;14278;50.784;4.630;2022-08-20T06:24:32;4.57;;;3.27;;
26654;SDS011;14278;50.784;4.630;2022-08-20T06:26:59;4.23;;;3.10;;
26654;SDS011;14278;50.784;4.630;2022-08-20T06:29:26;3.50;;;2.57;;
26654;SDS011;14278;50.784;4.630;2022-08-20T06:31:52;3.77;;;2.40;;
26654;SDS011;14278;50.784;4.630;2022-08-20T06:34:19;2.97;;;1.93;;
26654;SDS011;14278;50.784;4.630;2022-08-20T06:36:46;5.10;;;3.00;;
26654;SDS011;14278;50.784;4.630;2022-08-20T06:39:13;13.07;;;2.17;;
26654;SDS011;14278;50.784;4.630;2022-08-20T06:41:39;3.50;;;2.53;;
26654;SDS011;14278;50.784;4.630;2022-08-20T06:44:05;3.17;;;1.95;;
26654;SDS011;14278;50.784;4.630;2022-08-20T06:46:34;2.00;;;1.80;;
26654;SDS011;14278;50.784;4.630;2022-08-20T06:49:02;4.22;;;2.28;;
26654;SDS011;14278;50.784;4.630;2022-08-20T06:51:30;10.13;;;2.25;;
26654;SDS011;14278;50.784;4.630;2022-08-20T06:53:56;4.18;;;1.77;;
26654;SDS011;14278;50.784;4.630;2022-08-20T06:56:22;2.10;;;1.50;;
26654;SDS011;14278;50.784;4.630;2022-08-20T06:58:48;1.92;;;1.55;;
26654;SDS011;14278;50.784;4.630;2022-08-20T07:01:15;2.10;;;1.65;;
26654;SDS011;14278;50.784;4.630;2022-08-20T07:03:45;3.58;;;1.77;;
26654;SDS011;14278;50.784;4.630;2022-08-20T07:06:12;3.45;;;1.23;;
26654;SDS011;14278;50.784;4.630;2022-08-20T07:08:38;3.88;;;1.67;;
26654;SDS011;14278;50.784;4.630;2022-08-20T07:11:04;2.55;;;2.28;;
26654;SDS011;14278;50.784;4.630;2022-08-20T07:13:31;1.85;;;1.63;;
26654;SDS011;14278;50.784;4.630;2022-08-20T07:15:57;4.88;;;2.20;;
26654;SDS011;14278;50.784;4.630;2022-08-20T07:18:23;2.25;;;2.10;;
26654;SDS011;14278;50.784;4.630;2022-08-20T07:20:49;3.35;;;2.42;;
26654;SDS011;14278;50.784;4.630;2022-08-20T07:23:15;3.20;;;2.05;;
26654;SDS011;14278;50.784;4.630;2022-08-20T07:25:42;4.57;;;2.45;;
26654;SDS011;14278;50.784;4.630;2022-08-20T07:28:13;2.65;;;2.42;;
26654;SDS011;14278;50.784;4.630;2022-08-20T07:30:41;4.38;;;2.83;;
26654;SDS011;14278;50.784;4.630;2022-08-20T07:33:26;2.97;;;2.33;;
26654;SDS011;14278;50.784;4.630;2022-08-20T07:35:54;5.60;;;3.08;;
26654;SDS011;14278;50.784;4.630;2022-08-20T07:38:21;5.43;;;3.47;;
26654;SDS011;14278;50.784;4.630;2022-08-20T07:40:52;3.50;;;2.58;;
26654;SDS011;14278;50.784;4.630;2022-08-20T07:43:20;4.15;;;3.10;;
26654;SDS011;14278;50.784;4.630;2022-08-20T07:45:48;3.78;;;2.95;;
26654;SDS011;14278;50.784;4.630;2022-08-20T07:48:16;4.63;;;2.38;;
26654;SDS011;14278;50.784;4.630;2022-08-20T07:50:42;1.95;;;1.80;;
26654;SDS011;14278;50.784;4.630;2022-08-20T07:53:09;1.83;;;1.73;;
26654;SDS011;14278;50.784;4.630;2022-08-20T07:55:36;5.63;;;2.58;;
26654;SDS011;14278;50.784;4.630;2022-08-20T07:58:05;2.28;;;2.08;;
26654;SDS011;14278;50.784;4.630;2022-08-20T08:00:34;2.95;;;2.63;;
26654;SDS011;14278;50.784;4.630;2022-08-20T08:03:00;5.03;;;2.45;;
26654;SDS011;14278;50.784;4.630;2022-08-20T08:05:26;2.75;;;2.35;;
26654;SDS011;14278;50.784;4.630;2022-08-20T08:07:53;4.50;;;1.85;;
26654;SDS011;14278;50.784;4.630;2022-08-20T08:10:20;2.63;;;2.28;;
26654;SDS011;14278;50.784;4.630;2022-08-20T08:12:49;4.20;;;2.72;;
26654;SDS011;14278;50.784;4.630;2022-08-20T08:15:25;4.95;;;2.60;;
26654;SDS011;14278;50.784;4.630;2022-08-20T08:17:58;2.28;;;1.77;;
26654;SDS011;14278;50.784;4.630;2022-08-20T08:20:30;2.47;;;2.03;;
26654;SDS011;14278;50.784;4.630;2022-08-20T08:22:56;2.58;;;1.70;;
26654;SDS011;14278;50.784;4.630;2022-08-20T08:25:23;2.42;;;1.58;;
26654;SDS011;14278;50.784;4.630;2022-08-20T08:27:48;5.25;;;2.20;;
26654;SDS011;14278;50.784;4.630;2022-08-20T08:30:15;1.55;;;1.45;;
26654;SDS011;14278;50.784;4.630;2022-08-20T08:32:41;2.70;;;1.80;;
26654;SDS011;14278;50.784;4.630;2022-08-20T08:35:27;2.10;;;1.90;;
26654;SDS011;14278;50.784;4.630;2022-08-20T08:37:55;2.38;;;1.40;;
26654;SDS011;14278;50.784;4.630;2022-08-20T08:40:22;1.05;;;1.05;;
26654;SDS011;14278;50.784;4.630;2022-08-20T08:42:49;2.47;;;1.63;;
26654;SDS011;14278;50.784;4.630;2022-08-20T08:45:21;1.25;;;1.13;;
26654;SDS011;14278;50.784;4.630;2022-08-20T08:47:51;1.35;;;1.10;;
26654;SDS011;14278;50.784;4.630;2022-08-20T08:50:20;0.73;;;0.73;;
26654;SDS011;14278;50.784;4.630;2022-08-20T08:52:49;1.63;;;1.25;;
26654;SDS011;14278;50.784;4.630;2022-08-20T08:55:18;1.63;;;0.90;;
26654;SDS011;14278;50.784;4.630;2022-08-20T08:57:46;4.88;;;1.33;;
26654;SDS011;14278;50.784;4.630;2022-08-20T09:00:15;2.17;;;1.17;;
26654;SDS011;14278;50.784;4.630;2022-08-20T09:03:28;1.00;;;1.00;;
26654;SDS011;14278;50.784;4.630;2022-08-20T09:05:53;1.02;;;0.95;;
26654;SDS011;14278;50.784;4.630;2022-08-20T09:08:36;1.08;;;0.63;;
26654;SDS011;14278;50.784;4.630;2022-08-20T09:11:10;1.00;;;0.93;;
26654;SDS011;14278;50.784;4.630;2022-08-20T09:13:36;2.15;;;1.23;;
26654;SDS011;14278;50.784;4.630;2022-08-20T09:16:01;1.02;;;0.82;;
26654;SDS011;14278;50.784;4.630;2022-08-20T09:18:27;1.27;;;1.17;;
26654;SDS011;14278;50.784;4.630;2022-08-20T09:20:53;1.27;;;0.98;;
26654;SDS011;14278;50.784;4.630;2022-08-20T09:23:20;4.32;;;1.33;;
26654;SDS011;14278;50.784;4.630;2022-08-20T09:25:46;0.80;;;0.80;;
26654;SDS011;14278;50.784;4.630;2022-08-20T09:28:12;1.48;;;1.20;;
26654;SDS011;14278;50.784;4.630;2022-08-20T09:30:38;0.90;;;0.90;;
26654;SDS011;14278;50.784;4.630;2022-08-20T09:33:03;0.60;;;0.60;;
26654;SDS011;14278;50.784;4.630;2022-08-20T09:35:30;1.10;;;0.98;;
26654;SDS011;14278;50.784;4.630;2022-08-20T09:37:56;0.80;;;0.80;;
26654;SDS011;14278;50.784;4.630;2022-08-20T09:40:22;1.67;;;0.93;;
26654;SDS011;14278;50.784;4.630;2022-08-20T09:42:48;0.63;;;0.60;;
26654;SDS011;14278;50.784;4.630;2022-08-20T09:45:15;1.67;;;0.90;;
26654;SDS011;14278;50.784;4.630;2022-08-20T09:47:41;2.13;;;0.90;;
26654;SDS011;14278;50.784;4.630;2022-08-20T09:50:07;0.82;;;0.73;;
26654;SDS011;14278;50.784;4.630;2022-08-20T09:52:34;0.60;;;0.60;;
26654;SDS011;14278;50.784;4.630;2022-08-20T09:55:04;0.88;;;0.85;;
26654;SDS011;14278;50.784;4.630;2022-08-20T09:57:47;1.45;;;0.70;;
26654;SDS011;14278;50.784;4.630;2022-08-20T10:00:14;1.77;;;0.90;;
26654;SDS011;14278;50.784;4.630;2022-08-20T10:02:41;0.80;;;0.65;;
26654;SDS011;14278;50.784;4.630;2022-08-20T10:05:07;0.80;;;0.80;;
26654;SDS011;14278;50.784;4.630;2022-08-20T10:07:34;1.88;;;0.88;;
26654;SDS011;14278;50.784;4.630;2022-08-20T10:10:02;2.78;;;1.17;;
26654;SDS011;14278;50.784;4.630;2022-08-20T10:12:29;2.05;;;1.00;;
26654;SDS011;14278;50.784;4.630;2022-08-20T10:14:55;0.82;;;0.50;;
26654;SDS011;14278;50.784;4.630;2022-08-20T10:17:21;4.50;;;1.10;;
26654;SDS011;14278;50.784;4.630;2022-08-20T10:19:46;0.60;;;0.60;;
26654;SDS011;14278;50.784;4.630;2022-08-20T10:22:13;0.80;;;0.77;;
26654;SDS011;14278;50.784;4.630;2022-08-20T10:24:39;1.00;;;0.75;;
26654;SDS011;14278;50.784;4.630;2022-08-20T10:27:04;0.88;;;0.70;;
26654;SDS011;14278;50.784;4.630;2022-08-20T10:29:30;1.90;;;1.27;;
26654;SDS011;14278;50.784;4.630;2022-08-20T10:31:56;3.33;;;1.05;;
26654;SDS011;14278;50.784;4.630;2022-08-20T10:34:36;1.50;;;0.93;;
26654;SDS011;14278;50.784;4.630;2022-08-20T10:37:05;5.30;;;1.25;;
26654;SDS011;14278;50.784;4.630;2022-08-20T10:39:31;0.40;;;0.40;;
26654;SDS011;14278;50.784;4.630;2022-08-20T10:41:57;4.40;;;1.15;;
26654;SDS011;14278;50.784;4.630;2022-08-20T10:44:23;1.48;;;1.13;;
26654;SDS011;14278;50.784;4.630;2022-08-20T10:46:49;1.25;;;0.93;;
26654;SDS011;14278;50.784;4.630;2022-08-20T10:49:15;1.27;;;0.88;;
26654;SDS011;14278;50.784;4.630;2022-08-20T10:51:40;1.23;;;1.10;;
26654;SDS011;14278;50.784;4.630;2022-08-20T10:54:06;0.60;;;0.60;;
26654;SDS011;14278;50.784;4.630;2022-08-20T10:56:32;0.70;;;0.70;;
26654;SDS011;14278;50.784;4.630;2022-08-20T10:58:58;1.45;;;0.82;;
26654;SDS011;14278;50.784;4.630;2022-08-20T11:01:23;1.73;;;1.17;;
26654;SDS011;14278;50.784;4.630;2022-08-20T11:03:49;1.02;;;0.82;;
26654;SDS011;14278;50.784;4.630;2022-08-20T11:06:15;0.90;;;0.70;;
26654;SDS011;14278;50.784;4.630;2022-08-20T11:08:41;1.42;;;1.17;;
26654;SDS011;14278;50.784;4.630;2022-08-20T11:11:06;1.27;;;0.55;;
26654;SDS011;14278;50.784;4.630;2022-08-20T11:13:33;0.40;;;0.40;;
26654;SDS011;14278;50.784;4.630;2022-08-20T11:16:00;4.63;;;0.70;;
26654;SDS011;14278;50.784;4.630;2022-08-20T11:18:27;8.65;;;1.08;;
26654;SDS011;14278;50.784;4.630;2022-08-20T11:20:54;1.25;;;0.70;;
26654;SDS011;14278;50.784;4.630;2022-08-20T11:23:20;1.73;;;1.20;;
26654;SDS011;14278;50.784;4.630;2022-08-20T11:25:46;0.90;;;0.63;;
26654;SDS011;14278;50.784;4.630;2022-08-20T11:28:12;1.45;;;0.60;;
26654;SDS011;14278;50.784;4.630;2022-08-20T11:30:39;2.65;;;1.13;;
26654;SDS011;14278;50.784;4.630;2022-08-20T11:33:04;0.68;;;0.60;;
26654;SDS011;14278;50.784;4.630;2022-08-20T11:35:31;0.65;;;0.50;;
26654;SDS011;14278;50.784;4.630;2022-08-20T11:37:59;1.33;;;0.57;;
26654;SDS011;14278;50.784;4.630;2022-08-20T11:40:25;1.60;;;0.77;;
26654;SDS011;14278;50.784;4.630;2022-08-20T11:42:52;0.90;;;0.73;;
26654;SDS011;14278;50.784;4.630;2022-08-20T11:45:18;0.77;;;0.70;;
26654;SDS011;14278;50.784;4.630;2022-08-20T11:47:44;8.57;;;1.10;;
26654;SDS011;14278;50.784;4.630;2022-08-20T11:50:15;0.77;;;0.68;;
26654;SDS011;14278;50.784;4.630;2022-08-20T11:52:42;0.57;;;0.50;;
26654;SDS011;14278;50.784;4.630;2022-08-20T11:55:09;0.40;;;0.40;;
26654;SDS011;14278;50.784;4.630;2022-08-20T11:57:37;1.70;;;0.85;;
26654;SDS011;14278;50.784;4.630;2022-08-20T12:00:07;1.15;;;0.68;;
26654;SDS011;14278;50.784;4.630;2022-08-20T12:02:36;0.90;;;0.90;;
26654;SDS011;14278;50.784;4.630;2022-08-20T12:05:02;1.00;;;0.93;;
26654;SDS011;14278;50.784;4.630;2022-08-20T12:07:29;0.68;;;0.47;;
26654;SDS011;14278;50.784;4.630;2022-08-20T12:09:54;0.60;;;0.60;;
26654;SDS011;14278;50.784;4.630;2022-08-20T12:12:21;0.50;;;0.50;;
26654;SDS011;14278;50.784;4.630;2022-08-20T12:14:48;0.63;;;0.63;;
26654;SDS011;14278;50.784;4.630;2022-08-20T12:17:17;0.75;;;0.68;;
26654;SDS011;14278;50.784;4.630;2022-08-20T12:19:48;6.22;;;0.88;;
26654;SDS011;14278;50.784;4.630;2022-08-20T12:22:16;0.80;;;0.80;;
26654;SDS011;14278;50.784;4.630;2022-08-20T12:24:43;0.95;;;0.90;;
26654;SDS011;14278;50.784;4.630;2022-08-20T12:27:25;1.38;;;1.00;;
26654;SDS011;14278;50.784;4.630;2022-08-20T12:29:54;2.10;;;0.80;;
26654;SDS011;14278;50.784;4.630;2022-08-20T12:32:22;1.38;;;1.27;;
26654;SDS011;14278;50.784;4.630;2022-08-20T12:34:51;1.13;;;1.02;;
26654;SDS011;14278;50.784;4.630;2022-08-20T12:37:18;1.77;;;0.88;;
26654;SDS011;14278;50.784;4.630;2022-08-20T12:39:50;1.60;;;0.98;;
26654;SDS011;14278;50.784;4.630;2022-08-20T12:42:17;3.15;;;1.38;;
26654;SDS011;14278;50.784;4.630;2022-08-20T12:44:43;1.10;;;0.82;;
26654;SDS011;14278;50.784;4.630;2022-08-20T12:49:44;1.13;;;0.73;;
26654;SDS011;14278;50.784;4.630;2022-08-20T12:52:11;0.68;;;0.68;;
26654;SDS011;14278;50.784;4.630;2022-08-20T12:54:39;0.93;;;0.93;;
26654;SDS011;14278;50.784;4.630;2022-08-20T12:57:05;0.93;;;0.77;;
26654;SDS011;14278;50.784;4.630;2022-08-20T12:59:32;0.98;;;0.93;;
26654;SDS011;14278;50.784;4.630;2022-08-20T13:01:58;1.55;;;0.90;;
26654;SDS011;14278;50.784;4.630;2022-08-20T13:04:24;2.72;;;1.23;;
26654;SDS011;14278;50.784;4.630;2022-08-20T13:06:49;1.00;;;0.90;;
26654;SDS011;14278;50.784;4.630;2022-08-20T13:09:16;1.65;;;1.30;;
26654;SDS011;14278;50.784;4.630;2022-08-20T13:11:43;1.77;;;0.98;;
26654;SDS011;14278;50.784;4.630;2022-08-20T13:14:09;4.70;;;0.95;;
26654;SDS011;14278;50.784;4.630;2022-08-20T13:16:34;0.40;;;0.40;;
26654;SDS011;14278;50.784;4.630;2022-08-20T13:19:00;1.38;;;0.93;;
26654;SDS011;14278;50.784;4.630;2022-08-20T13:21:26;0.43;;;0.43;;
26654;SDS011;14278;50.784;4.630;2022-08-20T13:23:52;1.13;;;0.68;;
26654;SDS011;14278;50.784;4.630;2022-08-20T13:26:18;0.88;;;0.60;;
26654;SDS011;14278;50.784;4.630;2022-08-20T13:28:44;1.23;;;0.95;;
26654;SDS011;14278;50.784;4.630;2022-08-20T13:31:10;0.70;;;0.70;;
26654;SDS011;14278;50.784;4.630;2022-08-20T13:33:35;0.70;;;0.70;;
26654;SDS011;14278;50.784;4.630;2022-08-20T13:36:02;2.30;;;0.98;;
26654;SDS011;14278;50.784;4.630;2022-08-20T13:38:28;0.50;;;0.50;;
26654;SDS011;14278;50.784;4.630;2022-08-20T13:40:55;0.60;;;0.60;;
26654;SDS011;14278;50.784;4.630;2022-08-20T13:43:20;0.93;;;0.63;;
26654;SDS011;14278;50.784;4.630;2022-08-20T13:45:46;0.63;;;0.63;;
26654;SDS011;14278;50.784;4.630;2022-08-20T13:48:12;0.70;;;0.70;;
26654;SDS011;14278;50.784;4.630;2022-08-20T13:50:38;1.08;;;0.82;;
26654;SDS011;14278;50.784;4.630;2022-08-20T13:53:04;1.10;;;0.80;;
26654;SDS011;14278;50.784;4.630;2022-08-20T13:55:30;0.63;;;0.63;;
26654;SDS011;14278;50.784;4.630;2022-08-20T13:57:56;1.83;;;0.63;;
26654;SDS011;14278;50.784;4.630;2022-08-20T14:02:50;1.77;;;0.95;;
26654;SDS011;14278;50.784;4.630;2022-08-20T14:05:16;0.90;;;0.70;;
26654;SDS011;14278;50.784;4.630;2022-08-20T14:07:42;0.40;;;0.40;;
26654;SDS011;14278;50.784;4.630;2022-08-20T14:10:10;0.73;;;0.73;;
26654;SDS011;14278;50.784;4.630;2022-08-20T14:12:38;1.17;;;0.73;;
26654;SDS011;14278;50.784;4.630;2022-08-20T14:15:05;1.52;;;0.70;;
26654;SDS011;14278;50.784;4.630;2022-08-20T14:17:33;1.38;;;0.70;;
26654;SDS011;14278;50.784;4.630;2022-08-20T14:20:07;0.47;;;0.47;;
26654;SDS011;14278;50.784;4.630;2022-08-20T14:22:35;1.15;;;0.68;;
26654;SDS011;14278;50.784;4.630;2022-08-20T14:25:02;0.32;;;0.32;;
26654;SDS011;14278;50.784;4.630;2022-08-20T14:27:30;0.52;;;0.52;;
26654;SDS011;14278;50.784;4.630;2022-08-20T14:29:58;3.30;;;0.60;;
26654;SDS011;14278;50.784;4.630;2022-08-20T14:32:24;0.60;;;0.60;;
26654;SDS011;14278;50.784;4.630;2022-08-20T14:34:51;0.63;;;0.63;;
26654;SDS011;14278;50.784;4.630;2022-08-20T14:37:22;0.55;;;0.55;;
26654;SDS011;14278;50.784;4.630;2022-08-20T14:39:52;0.50;;;0.50;;
26654;SDS011;14278;50.784;4.630;2022-08-20T14:42:21;1.35;;;0.47;;
26654;SDS011;14278;50.784;4.630;2022-08-20T14:44:48;0.28;;;0.28;;
26654;SDS011;14278;50.784;4.630;2022-08-20T14:47:20;0.73;;;0.73;;
26654;SDS011;14278;50.784;4.630;2022-08-20T14:49:49;0.40;;;0.40;;
26654;SDS011;14278;50.784;4.630;2022-08-20T14:52:17;0.20;;;0.20;;
26654;SDS011;14278;50.784;4.630;2022-08-20T14:54:44;0.30;;;0.30;;
26654;SDS011;14278;50.784;4.630;2022-08-20T14:57:11;0.20;;;0.20;;